Kalkaska, Michigan
Current Conditions -  °F | °C
As of 9:37 AM on Tuesday 21 Oct 2014 (Local Time) from KACB Reporting Station
Overcast Overcast  
Wind Chill: 39°   Ceiling: 2700
Heat Index: 44°   Visibility: 10mi
Dew Point: 35°   Wind: 8mph
Humidity: 71%   Direction: 10°N
Pressure: 30.14"   Gusts: NA
Location:  44.73°N, 85.18°W
Report Text: KACB 211337Z AUTO 01007KT 10SM OVC027 07/02 A3014 RMK AO2 T00660017
Loading
Personal Weather Stations






























Interactive Weather Map
Tropical Storm Tracking
New forecast layout! Learn more

10-Day Weather Forecast

Advertisements
Track Severe Weather on mobile